Time;durP1;ratioP1;P1;durP2;ratioP2;P2;SDS_P1;SDS_P2;PMS_P1;PMS_P2;Temp;Humidity;BMP_temperature;BMP_pressure;BME280_temperature;BME280_humidity;BME280_pressure;Samples;Min_cycle;Max_cycle;Signal;HPM_P1;HPM_P2
2022/10/04 00:01:51;;;;;;;8.43;4.90;;;;;;;9.70;100.00;102102.97;4984544;28;20030;-83
2022/10/04 00:04:57;;;;;;;11.25;5.43;;;;;;;9.68;100.00;102097.06;4948549;28;20475;-83
2022/10/04 00:07:31;;;;;;;9.43;5.22;;;;;;;9.66;100.00;102099.81;4944221;28;20044;-83
2022/10/04 00:10:04;;;;;;;13.25;5.40;;;;;;;9.66;100.00;102101.56;4990384;28;22224;-83
2022/10/04 00:12:32;;;;;;;13.07;6.10;;;;;;;9.63;100.00;102097.44;5004652;28;20372;-83
2022/10/04 00:15:02;;;;;;;13.63;5.70;;;;;;;9.64;100.00;102095.66;4974673;28;20045;-83
2022/10/04 00:17:34;;;;;;;11.98;5.28;;;;;;;9.63;100.00;102099.22;4991742;28;20108;-83
2022/10/04 00:20:01;;;;;;;10.40;5.68;;;;;;;9.61;100.00;102098.50;5005177;28;20035;-83
2022/10/04 00:22:31;;;;;;;10.32;5.45;;;;;;;9.59;100.00;102102.97;4989004;28;20387;-82
2022/10/04 00:25:06;;;;;;;12.57;5.93;;;;;;;9.57;100.00;102095.34;4956614;28;20113;-83
2022/10/04 00:27:32;;;;;;;10.80;5.10;;;;;;;9.57;100.00;102090.16;4973933;28;20092;-83
2022/10/04 00:30:01;;;;;;;11.43;6.53;;;;;;;9.57;100.00;102087.56;4971919;28;20046;-83
2022/10/04 00:32:44;;;;;;;13.32;6.10;;;;;;;9.55;100.00;102085.09;4991362;28;20035;-82
2022/10/04 00:35:25;;;;;;;9.45;5.63;;;;;;;9.55;100.00;102089.44;4982890;28;20041;-82
2022/10/04 00:38:05;;;;;;;13.02;6.05;;;;;;;9.57;100.00;102086.72;4974150;28;20031;-83
2022/10/04 00:40:38;;;;;;;12.35;6.13;;;;;;;9.59;100.00;102084.84;4976450;28;20129;-83
2022/10/04 00:43:05;;;;;;;;;;;;;;;9.58;100.00;102090.97;4981711;28;20034;-82
2022/10/04 00:45:45;;;;;;;8.80;4.93;;;;;;;9.58;100.00;102093.56;4993919;28;20008;-83
2022/10/04 00:48:15;;;;;;;10.32;5.88;;;;;;;9.56;100.00;102096.25;4971186;28;20084;-82
2022/10/04 00:50:44;;;;;;;10.65;4.63;;;;;;;9.55;100.00;102095.44;4988156;28;20032;-82
2022/10/04 00:53:22;;;;;;;9.18;5.10;;;;;;;9.58;100.00;102093.56;4976762;28;20574;-82
2022/10/04 00:55:54;;;;;;;14.38;5.65;;;;;;;9.58;100.00;102078.84;4974057;28;20457;-82
2022/10/04 00:58:26;;;;;;;12.60;5.53;;;;;;;9.58;100.00;102089.19;4985702;28;20040;-82
2022/10/04 01:00:54;;;;;;;10.80;5.60;;;;;;;9.56;100.00;102085.91;4972116;28;20080;-83
2022/10/04 01:03:35;;;;;;;9.90;5.10;;;;;;;9.52;100.00;102090.50;4993135;28;20069;-83
2022/10/04 01:06:05;;;;;;;13.82;5.47;;;;;;;9.47;100.00;102090.00;4971536;28;20035;-82
2022/10/04 01:08:53;;;;;;;13.15;6.18;;;;;;;9.41;100.00;102087.09;4968300;28;20052;-81
2022/10/04 01:11:23;;;;;;;11.93;5.53;;;;;;;9.34;100.00;102082.38;4982493;28;20053;-82
2022/10/04 01:14:18;;;;;;;10.70;5.13;;;;;;;9.32;100.00;102079.09;4970305;28;20066;-82
2022/10/04 01:16:43;;;;;;;9.82;4.85;;;;;;;9.30;100.00;102075.75;4974749;28;20034;-82
2022/10/04 01:19:29;;;;;;;11.27;4.80;;;;;;;9.29;100.00;102081.91;4966977;28;20072;-82
2022/10/04 01:22:03;;;;;;;10.35;5.25;;;;;;;9.27;100.00;102081.19;4975041;28;20036;-82
2022/10/04 01:24:36;;;;;;;8.48;4.80;;;;;;;9.28;100.00;102071.66;4990034;28;20029;-84
2022/10/04 01:27:02;;;;;;;10.18;5.22;;;;;;;9.30;100.00;102072.34;4984597;28;20038;-82
2022/10/04 01:29:30;;;;;;;8.40;4.57;;;;;;;9.28;100.00;102066.47;4972885;28;20045;-82
2022/10/04 01:31:58;;;;;;;7.47;5.55;;;;;;;9.27;100.00;102070.03;4969866;28;20054;-83
2022/10/04 01:34:26;;;;;;;12.38;4.93;;;;;;;9.27;100.00;102070.84;4969099;28;20061;-82
2022/10/04 01:36:59;;;;;;;10.63;5.22;;;;;;;9.29;100.00;102066.38;4972534;28;20049;-81
2022/10/04 01:39:26;;;;;;;15.68;6.05;;;;;;;9.34;100.00;102071.19;4983770;28;20025;-82
2022/10/04 01:41:55;;;;;;;14.27;5.60;;;;;;;9.31;100.00;102064.47;4969807;28;20038;-82
2022/10/04 01:44:39;;;;;;;10.07;5.53;;;;;;;9.32;100.00;102065.28;4972711;28;20037;-82
2022/10/04 01:47:13;;;;;;;9.05;4.72;;;;;;;9.34;100.00;102055.66;5007247;28;20061;-82
2022/10/04 01:49:42;;;;;;;11.18;5.82;;;;;;;9.35;100.00;102042.59;4987470;28;20056;-82
2022/10/04 01:52:37;;;;;;;20.02;6.60;;;;;;;9.38;100.00;102046.72;4971790;28;20054;-82
2022/10/04 01:55:14;;;;;;;15.25;5.47;;;;;;;9.30;100.00;102039.53;4966400;28;20099;-82
2022/10/04 01:57:54;;;;;;;13.63;5.72;;;;;;;9.25;100.00;102048.59;4974990;28;20083;-82
2022/10/04 02:00:21;;;;;;;16.05;5.53;;;;;;;9.22;100.00;102044.47;4974862;28;20034;-82
2022/10/04 02:02:57;;;;;;;8.38;4.82;;;;;;;9.21;100.00;102045.44;4974503;28;20034;-82
2022/10/04 02:05:31;;;;;;;11.43;5.65;;;;;;;9.20;100.00;102042.94;4990240;28;20491;-83
2022/10/04 02:08:03;;;;;;;10.35;5.35;;;;;;;9.19;100.00;102036.13;4974188;28;20030;-82
2022/10/04 02:10:29;;;;;;;9.88;4.93;;;;;;;9.18;100.00;102034.47;4975254;28;20048;-82
2022/10/04 02:12:56;;;;;;;13.18;5.35;;;;;;;9.19;100.00;102031.75;4968917;28;20034;-82
2022/10/04 02:15:25;;;;;;;14.48;5.30;;;;;;;9.19;100.00;102025.75;4974540;28;20034;-82
2022/10/04 02:17:52;;;;;;;9.10;4.80;;;;;;;9.23;100.00;102020.25;4975965;28;20474;-82
2022/10/04 02:20:22;;;;;;;10.07;5.63;;;;;;;9.24;100.00;102018.47;4973695;28;20045;-82
2022/10/04 02:22:53;;;;;;;12.05;5.82;;;;;;;9.25;100.00;102015.78;4974075;28;20114;-81
2022/10/04 02:25:19;;;;;;;14.63;6.78;;;;;;;9.20;100.00;102014.47;4978088;28;20387;-82
2022/10/04 02:27:45;;;;;;;13.07;6.38;;;;;;;9.15;100.00;102010.50;4969140;28;20039;-81
2022/10/04 02:30:12;;;;;;;21.92;6.45;;;;;;;9.13;100.00;102007.16;4980226;28;20121;-82
2022/10/04 02:35:34;;;;;;;15.70;6.22;;;;;;;9.16;100.00;102001.75;4992548;28;20041;-82
2022/10/04 02:38:06;;;;;;;16.67;6.38;;;;;;;9.13;100.00;101996.00;4980944;28;20113;-82
2022/10/04 02:41:02;;;;;;;14.40;6.57;;;;;;;9.07;100.00;101986.94;4977649;28;20503;-82
2022/10/04 02:43:32;;;;;;;12.85;6.22;;;;;;;9.12;100.00;101994.38;4976142;28;20048;-82
2022/10/04 02:46:13;;;;;;;13.07;5.63;;;;;;;9.06;100.00;101987.91;4977932;28;20104;-81
2022/10/04 02:48:42;;;;;;;11.50;6.35;;;;;;;9.03;100.00;101988.13;4973508;28;20044;-82
2022/10/04 02:51:33;;;;;;;15.40;6.20;;;;;;;9.02;100.00;101994.22;4993981;28;20037;-82
2022/10/04 02:54:11;;;;;;;13.43;6.35;;;;;;;9.06;100.00;101990.50;4968691;28;20502;-82
2022/10/04 02:56:38;;;;;;;17.13;6.45;;;;;;;9.07;100.00;101991.31;5009539;28;20109;-81
2022/10/04 02:59:06;;;;;;;14.63;6.65;;;;;;;9.02;100.00;101990.81;4994104;28;20632;-81
2022/10/04 03:01:46;;;;;;;14.05;6.00;;;;;;;9.04;100.00;101988.94;4988021;28;20065;-82
2022/10/04 03:04:13;;;;;;;16.02;5.90;;;;;;;9.16;100.00;101973.31;4989651;28;20125;-82
2022/10/04 03:06:42;;;;;;;14.43;6.65;;;;;;;9.10;100.00;101971.19;4992702;28;20042;-82
2022/10/04 03:09:08;;;;;;;10.65;5.50;;;;;;;9.04;100.00;101976.00;4979873;28;20049;-81
2022/10/04 03:11:37;;;;;;;16.35;6.35;;;;;;;9.04;100.00;101976.84;5006156;28;20391;-81
2022/10/04 03:14:07;;;;;;;15.70;5.90;;;;;;;8.99;100.00;101960.03;4976309;28;20036;-81
2022/10/04 03:16:37;;;;;;;23.10;7.72;;;;;;;8.96;100.00;101972.22;4989220;28;20034;-82
2022/10/04 03:19:04;;;;;;;12.40;5.40;;;;;;;8.94;100.00;101975.88;4973806;28;20030;-82
2022/10/04 03:21:31;;;;;;;16.30;5.60;;;;;;;8.92;100.00;101978.56;4978223;28;20117;-82
2022/10/04 03:23:59;;;;;;;12.70;5.75;;;;;;;8.91;100.00;101963.16;4991280;28;20034;-81
2022/10/04 03:26:35;;;;;;;19.67;6.40;;;;;;;8.86;100.00;101950.59;4975556;28;20026;-81
2022/10/04 03:29:04;;;;;;;11.52;6.13;;;;;;;8.88;100.00;101947.91;4975769;28;20077;-81
2022/10/04 03:31:42;;;;;;;12.43;5.38;;;;;;;8.85;100.00;101948.13;4991953;28;20291;-82
2022/10/04 03:34:22;;;;;;;13.35;5.53;;;;;;;8.85;100.00;101942.94;4989483;28;20034;-82
2022/10/04 03:36:50;;;;;;;15.15;5.43;;;;;;;8.83;100.00;101940.47;4989797;28;20065;-81
2022/10/04 03:39:32;;;;;;;15.65;5.70;;;;;;;8.83;100.00;101931.91;4975570;28;20438;-81
2022/10/04 03:42:09;;;;;;;10.25;5.38;;;;;;;8.81;100.00;101937.19;4977119;28;20034;-83
2022/10/04 03:44:35;;;;;;;10.68;5.13;;;;;;;8.81;100.00;101931.19;4993340;28;20062;-81
2022/10/04 03:47:05;;;;;;;12.02;5.03;;;;;;;8.77;100.00;101931.41;4971693;28;20443;-83
2022/10/04 03:49:35;;;;;;;9.50;5.03;;;;;;;8.77;100.00;101938.38;4990837;28;20042;-81
2022/10/04 03:52:03;;;;;;;13.05;5.65;;;;;;;8.80;100.00;101937.28;4974539;28;20026;-82
2022/10/04 03:54:30;;;;;;;12.25;5.65;;;;;;;8.79;100.00;101931.31;4993168;28;20037;-82
2022/10/04 03:56:57;;;;;;;17.88;5.22;;;;;;;8.82;100.00;101930.28;4991644;28;20029;-82
2022/10/04 03:59:25;;;;;;;15.25;5.88;;;;;;;8.67;100.00;101933.06;4992412;28;20073;-82
2022/10/04 04:02:19;;;;;;;14.93;5.80;;;;;;;8.75;100.00;101935.88;4991518;28;20080;-77
2022/10/04 04:05:08;;;;;;;12.70;5.90;;;;;;;8.65;100.00;101942.72;4988352;28;20121;-81
2022/10/04 04:07:40;;;;;;;10.75;5.78;;;;;;;8.58;100.00;101947.50;4992664;28;20042;-82
2022/10/04 04:10:28;;;;;;;15.40;5.50;;;;;;;8.66;100.00;101940.94;4974035;28;20088;-81
2022/10/04 04:13:01;;;;;;;18.70;5.60;;;;;;;8.58;100.00;101944.09;4975556;28;20870;-81
2022/10/04 04:15:30;;;;;;;12.13;6.35;;;;;;;8.64;100.00;101941.03;4974965;28;20502;-81
2022/10/04 04:18:06;;;;;;;13.60;6.30;;;;;;;8.64;100.00;101945.41;4980864;28;20482;-83
2022/10/04 04:20:35;;;;;;;15.52;5.70;;;;;;;8.49;100.00;101937.84;4987546;28;20065;-82
2022/10/04 04:23:09;;;;;;;15.13;6.70;;;;;;;8.49;100.00;101937.84;4987962;28;20535;-82
2022/10/04 04:25:38;;;;;;;16.17;6.85;;;;;;;8.51;100.00;101930.81;4981175;28;20034;-81
2022/10/04 04:28:26;;;;;;;12.88;6.45;;;;;;;8.43;100.00;101930.56;4976325;28;20118;-82
2022/10/04 04:31:17;;;;;;;23.48;8.63;;;;;;;8.36;100.00;101929.31;4990356;28;20040;-81
2022/10/04 04:33:45;;;;;;;10.70;6.05;;;;;;;8.31;100.00;101923.69;4971712;28;20064;-82
2022/10/04 04:36:13;;;;;;;15.52;6.10;;;;;;;8.31;100.00;101923.69;4970146;28;20611;-81
2022/10/04 04:39:33;;;;;;;14.38;7.00;;;;;;;8.44;100.00;101923.63;4993016;28;21372;-82
2022/10/04 04:41:27;;;;;;;16.25;6.78;;;;;;;8.41;100.00;101921.25;4991123;28;20041;-81
2022/10/04 04:43:52;;;;;;;17.77;6.25;;;;;;;8.41;100.00;101916.06;4976330;28;20049;-82
2022/10/04 04:46:18;;;;;;;13.85;6.15;;;;;;;8.35;100.00;101918.16;4982553;28;20057;-82
2022/10/04 04:48:47;;;;;;;19.08;7.40;;;;;;;8.27;100.00;101914.50;4970174;28;20040;-81
2022/10/04 04:51:21;;;;;;;13.65;6.20;;;;;;;8.22;100.00;101917.44;4990259;28;20034;-81
2022/10/04 04:53:47;;;;;;;13.25;6.85;;;;;;;8.28;100.00;101913.56;4970308;28;20688;-81
2022/10/04 04:56:18;;;;;;;21.00;7.47;;;;;;;8.27;100.00;101910.19;4988377;28;20093;-81
2022/10/04 04:58:46;;;;;;;16.17;6.57;;;;;;;8.28;100.00;101909.22;4995100;28;20479;-82
2022/10/04 05:01:34;;;;;;;13.77;6.95;;;;;;;8.25;100.00;101906.03;4971678;28;20125;-81
2022/10/04 05:04:03;;;;;;;13.82;6.97;;;;;;;8.28;100.00;101903.25;5006750;28;20029;-81
2022/10/04 05:06:30;;;;;;;15.50;7.45;;;;;;;8.32;100.00;101904.66;4976270;28;20037;-80
2022/10/04 05:08:56;;;;;;;15.88;7.30;;;;;;;8.28;100.00;101893.72;4976678;28;20026;-81
2022/10/04 05:11:27;;;;;;;16.17;6.15;;;;;;;8.33;100.00;101888.22;4991283;28;20105;-81
2022/10/04 05:14:02;;;;;;;20.35;6.75;;;;;;;8.25;100.00;101900.88;4975314;28;20045;-81
2022/10/04 05:16:47;;;;;;;20.45;7.25;;;;;;;8.17;100.00;101911.78;4974530;28;20034;-81
2022/10/04 05:19:20;;;;;;;14.10;6.75;;;;;;;8.14;100.00;101904.28;4969587;28;20508;-81
2022/10/04 05:21:47;;;;;;;18.60;7.35;;;;;;;8.09;100.00;101912.34;4988813;28;20044;-80
2022/10/04 05:24:29;;;;;;;13.32;6.65;;;;;;;8.10;100.00;101905.41;4989705;28;20594;-80
2022/10/04 05:27:04;;;;;;;17.57;7.93;;;;;;;8.09;100.00;101906.34;4971145;28;20509;-81
2022/10/04 05:29:35;;;;;;;17.60;7.15;;;;;;;8.06;100.00;101916.91;5003620;28;20034;-81
2022/10/04 05:32:53;;;;;;;15.18;7.25;;;;;;;8.13;100.00;101910.34;4969277;28;20388;-81
2022/10/04 05:35:21;;;;;;;14.13;6.45;;;;;;;8.10;100.00;101905.41;4971132;28;20116;-81
2022/10/04 05:37:49;;;;;;;13.35;6.55;;;;;;;8.19;100.00;101904.72;4986443;28;20053;-81
2022/10/04 05:40:22;;;;;;;20.02;7.22;;;;;;;8.19;100.00;101896.97;4974675;28;20498;-81
2022/10/04 05:42:50;;;;;;;13.10;6.57;;;;;;;8.11;100.00;101900.13;4990333;28;20113;-80
2022/10/04 05:45:23;;;;;;;12.13;7.15;;;;;;;7.99;100.00;101896.69;4970418;28;20328;-79
2022/10/04 05:47:52;;;;;;;17.35;6.57;;;;;;;7.94;100.00;101898.78;4986019;28;20034;-79
2022/10/04 05:50:40;;;;;;;17.70;8.45;;;;;;;7.98;100.00;101901.97;4986503;28;20072;-79
2022/10/04 05:53:31;;;;;;;14.20;6.68;;;;;;;7.91;100.00;101888.69;4967956;28;20042;-79
2022/10/04 05:56:25;;;;;;;15.15;6.88;;;;;;;7.89;100.00;101890.56;4987939;28;20101;-79
2022/10/04 05:59:20;;;;;;;20.73;8.77;;;;;;;7.90;100.00;101894.78;4969851;28;20398;-78
2022/10/04 06:02:10;;;;;;;18.50;7.60;;;;;;;7.95;100.00;101891.88;4986147;28;20031;-79
2022/10/04 06:04:41;;;;;;;20.35;7.22;;;;;;;7.94;100.00;101898.78;4975844;28;20034;-79
2022/10/04 06:07:29;;;;;;;15.85;7.22;;;;;;;7.96;100.00;101894.31;4972108;28;20038;-79
2022/10/04 06:10:31;;;;;;;16.90;7.30;;;;;;;7.97;100.00;101902.91;4972877;28;20035;-79
2022/10/04 06:13:50;;;;;;;17.17;7.47;;;;;;;7.95;100.00;101900.44;4988314;28;20074;-80
2022/10/04 06:16:27;;;;;;;26.02;10.77;;;;;;;8.08;100.00;101899.53;4988168;28;20041;-80
2022/10/04 06:19:20;;;;;;;14.35;7.97;;;;;;;8.06;100.00;101896.25;4987535;28;20064;-80
2022/10/04 06:21:49;;;;;;;18.27;7.80;;;;;;;8.16;100.00;101900.63;4991168;28;20040;-80
2022/10/04 06:24:20;;;;;;;17.50;8.60;;;;;;;8.18;100.00;101908.28;4990128;28;20033;-80
2022/10/04 06:26:52;;;;;;;21.52;9.27;;;;;;;8.15;100.00;101922.22;4987659;28;20042;-81
2022/10/04 06:29:27;;;;;;;19.25;9.30;;;;;;;8.20;100.00;101914.16;4989124;28;20033;-80
2022/10/04 06:31:58;;;;;;;26.52;8.75;;;;;;;8.25;100.00;101911.22;4971886;28;20494;-81
2022/10/04 06:35:16;;;;;;;16.95;8.57;;;;;;;8.36;100.00;101908.66;4974727;28;20082;-80
2022/10/04 06:37:47;;;;;;;18.02;7.63;;;;;;;8.37;100.00;101911.13;4930435;28;20047;-80
2022/10/04 06:40:40;;;;;;;22.42;8.45;;;;;;;8.43;100.00;101903.88;4975431;28;20038;-81
2022/10/04 06:43:18;;;;;;;24.23;10.23;;;;;;;8.51;100.00;101904.13;4985840;28;20085;-81
2022/10/04 06:46:36;;;;;;;17.42;8.23;;;;;;;8.56;100.00;101905.44;4973808;28;20406;-81
2022/10/04 06:49:02;;;;;;;13.43;7.60;;;;;;;8.63;100.00;101910.97;4914847;29;20031;-81
2022/10/04 06:51:39;;;;;;;17.15;7.15;;;;;;;8.72;100.00;101912.03;4961531;28;20060;-81
2022/10/04 06:54:49;;;;;;;19.80;7.63;;;;;;;8.90;100.00;101909.81;4975086;28;20034;-81
2022/10/04 06:57:39;;;;;;;24.58;7.97;;;;;;;8.99;100.00;101909.09;4970737;28;20034;-81
2022/10/04 07:00:12;;;;;;;17.20;7.68;;;;;;;9.19;100.00;101902.34;4974595;28;20050;-82
2022/10/04 07:02:41;;;;;;;16.83;7.68;;;;;;;9.25;100.00;101906.22;4972502;28;20065;-82
2022/10/04 07:05:14;;;;;;;19.80;7.93;;;;;;;9.24;100.00;101902.81;4987397;28;20066;-80
2022/10/04 07:07:46;;;;;;;22.40;9.00;;;;;;;9.19;100.00;101906.72;4970276;28;20038;-81
2022/10/04 07:10:41;;;;;;;16.92;8.30;;;;;;;9.25;100.00;101903.63;4989224;28;20042;-84
2022/10/04 07:13:18;;;;;;;15.23;6.95;;;;;;;9.46;100.00;101899.38;4964897;28;20043;-84
2022/10/04 07:16:05;;;;;;;16.38;7.00;;;;;;;9.62;100.00;101900.75;4980403;28;20402;-84
2022/10/04 07:18:51;;;;;;;16.60;7.95;;;;;;;9.82;100.00;101905.13;4986932;28;21861;-84
2022/10/04 07:21:17;;;;;;;12.73;6.90;;;;;;;9.78;100.00;101892.56;4978279;28;20050;-84
2022/10/04 07:23:47;;;;;;;18.48;7.00;;;;;;;9.60;100.00;101900.84;4972756;28;20092;-81
2022/10/04 07:26:47;;;;;;;13.48;6.38;;;;;;;9.59;100.00;101895.78;4979816;28;20104;-83
2022/10/04 07:29:32;;;;;;;16.30;7.10;;;;;;;9.49;100.00;101895.72;4992166;28;20029;-83
2022/10/04 07:32:04;;;;;;;17.55;7.55;;;;;;;9.50;100.00;101897.38;4973958;28;20092;-82
2022/10/04 07:34:34;;;;;;;17.60;6.72;;;;;;;9.45;100.00;101896.91;4973472;28;20026;-81
2022/10/04 07:37:07;;;;;;;14.20;7.10;;;;;;;9.47;100.00;101903.59;4976739;28;20060;-79
2022/10/04 07:39:43;;;;;;;15.20;6.63;;;;;;;9.49;100.00;101906.91;4985262;28;20034;-83
2022/10/04 07:42:30;;;;;;;15.90;6.70;;;;;;;9.77;100.00;101919.41;5010158;28;20042;-78
2022/10/04 07:45:05;;;;;;;19.02;7.65;;;;;;;10.10;100.00;101910.69;4994895;28;20037;-77
2022/10/04 07:47:31;;;;;;;17.95;8.25;;;;;;;10.39;97.67;101902.28;5008503;28;20045;-82
2022/10/04 07:49:57;;;;;;;20.02;7.18;;;;;;;10.70;96.85;101903.13;4994245;28;20042;-83
2022/10/04 07:52:39;;;;;;;16.90;7.25;;;;;;;11.19;95.26;101909.31;4980733;28;20119;-81
2022/10/04 07:55:23;;;;;;;13.40;6.53;;;;;;;11.42;90.62;101906.50;4992027;28;20030;-75
2022/10/04 07:58:01;;;;;;;13.90;5.57;;;;;;;11.86;88.34;101907.72;4993392;28;20481;-81
2022/10/04 08:00:48;;;;;;;14.20;5.68;;;;;;;12.23;86.18;101901.03;4979500;28;20041;-76
2022/10/04 08:03:35;;;;;;;17.92;6.97;;;;;;;12.38;84.72;101897.03;4974231;28;20034;-75
2022/10/04 08:06:38;;;;;;;18.98;6.10;;;;;;;12.82;82.70;101897.25;4992528;28;20038;-77
2022/10/04 08:09:19;;;;;;;14.93;5.45;;;;;;;13.31;80.88;101880.59;4994098;28;20040;-78
2022/10/04 08:12:04;;;;;;;9.35;5.10;;;;;;;13.87;78.07;101883.88;5004569;28;20035;-77
2022/10/04 08:14:39;;;;;;;13.48;6.00;;;;;;;13.78;77.19;101889.00;4990477;28;20053;-76
2022/10/04 08:17:31;;;;;;;11.48;5.70;;;;;;;13.71;78.37;101887.97;4971253;28;20046;-76
2022/10/04 08:20:23;;;;;;;12.80;5.10;;;;;;;13.89;77.24;101885.34;4958925;28;20120;-75
2022/10/04 08:23:00;;;;;;;17.85;4.95;;;;;;;14.46;76.39;101878.84;5007040;28;20041;-78
2022/10/04 08:26:01;;;;;;;18.80;6.00;;;;;;;14.96;73.99;101878.94;4994266;28;20037;-77
2022/10/04 08:31:39;;;;;;;13.18;6.68;;;;;;;15.90;69.52;101866.47;5005508;28;20121;-77
2022/10/04 08:34:11;;;;;;;9.75;5.40;;;;;;;16.09;69.30;101873.16;4989839;28;20044;-77
2022/10/04 08:37:02;;;;;;;15.00;5.13;;;;;;;16.10;69.27;101876.59;4972012;28;20034;-77
2022/10/04 08:39:30;;;;;;;13.93;6.07;;;;;;;16.41;68.11;101876.69;5006118;28;20048;-79
2022/10/04 08:42:25;;;;;;;10.48;4.70;;;;;;;16.82;68.23;101868.69;4988613;28;20030;-77
2022/10/04 08:45:21;;;;;;;13.73;5.25;;;;;;;16.66;66.94;101879.22;4973863;28;20044;-77
2022/10/04 08:48:27;;;;;;;10.70;4.68;;;;;;;16.96;66.18;101866.34;4985978;28;20138;-77
2022/10/04 08:51:18;;;;;;;8.73;4.50;;;;;;;17.15;66.59;101868.50;4987733;28;20120;-78
2022/10/04 08:53:47;;;;;;;9.70;5.20;;;;;;;17.13;64.82;101862.63;4988747;28;20049;-77
2022/10/04 08:56:48;;;;;;;9.75;4.65;;;;;;;16.85;65.27;101865.72;4991839;28;20048;-76
2022/10/04 08:59:31;;;;;;;12.23;4.82;;;;;;;17.18;66.50;101860.31;4987094;28;20096;-76
2022/10/04 09:02:15;;;;;;;12.63;5.03;;;;;;;17.33;65.51;101852.50;4984278;28;20064;-78
2022/10/04 09:04:53;;;;;;;13.52;5.60;;;;;;;17.00;65.99;101857.94;4983805;28;20042;-75
2022/10/04 09:07:24;;;;;;;14.05;5.90;;;;;;;16.84;68.01;101869.34;5001984;28;20362;-77
2022/10/04 09:10:17;;;;;;;14.55;5.95;;;;;;;16.81;68.36;101874.06;4990188;28;20026;-76
2022/10/04 09:12:43;;;;;;;14.20;5.60;;;;;;;16.58;68.88;101872.22;4970112;28;20074;-77
2022/10/04 09:15:42;;;;;;;15.45;5.88;;;;;;;16.65;69.32;101861.84;4988552;28;20065;-77
2022/10/04 09:18:47;;;;;;;10.27;5.78;;;;;;;16.50;69.61;101864.38;4972437;28;20038;-77
2022/10/04 09:21:26;;;;;;;10.65;5.30;;;;;;;16.40;70.49;101861.94;4970120;28;20037;-75
2022/10/04 09:24:29;;;;;;;15.68;5.78;;;;;;;16.28;71.76;101860.69;4968653;28;20105;-76
2022/10/04 09:27:14;;;;;;;9.85;5.18;;;;;;;16.31;71.60;101862.94;4987409;28;20060;-77
2022/10/04 09:29:39;;;;;;;14.93;6.20;;;;;;;16.22;71.09;101870.03;4988498;28;20117;-78
2022/10/04 09:32:25;;;;;;;12.95;5.72;;;;;;;16.33;71.49;101864.44;4999756;28;20129;-78
2022/10/04 09:35:09;;;;;;;9.38;5.47;;;;;;;16.33;71.15;101856.59;4972103;28;20036;-79
2022/10/04 09:38:02;;;;;;;13.18;5.70;;;;;;;16.31;71.22;101861.19;4969287;28;20045;-76
2022/10/04 09:40:54;;;;;;;10.45;5.30;;;;;;;16.34;69.44;101849.53;4985939;28;20553;-78
2022/10/04 09:43:39;;;;;;;17.60;6.28;;;;;;;16.33;69.99;101851.34;4989268;28;21885;-77
2022/10/04 09:46:28;;;;;;;12.57;5.07;;;;;;;16.15;71.60;101846.31;4973353;28;20451;-77
2022/10/04 09:48:54;;;;;;;14.32;6.18;;;;;;;16.24;70.04;101843.69;4965888;28;20687;-77
2022/10/04 09:51:40;;;;;;;13.63;5.63;;;;;;;16.11;70.25;101839.78;4969298;28;20038;-77
2022/10/04 09:54:46;;;;;;;15.70;5.80;;;;;;;16.14;72.69;101846.47;4988203;28;20394;-78
2022/10/04 09:57:18;;;;;;;15.38;5.90;;;;;;;16.28;72.15;101848.41;4973739;28;20097;-76
2022/10/04 10:00:13;;;;;;;16.70;6.28;;;;;;;16.37;71.67;101843.16;4998292;28;20730;-76
2022/10/04 10:03:22;;;;;;;16.23;5.88;;;;;;;16.46;70.38;101847.38;4972591;28;20046;-78
2022/10/04 10:06:13;;;;;;;13.00;6.07;;;;;;;16.36;72.39;101837.09;4999881;28;20044;-77
2022/10/04 10:08:41;;;;;;;18.20;6.95;;;;;;;16.51;70.39;101831.97;4981448;28;20034;-78
2022/10/04 10:14:41;;;;;;;19.08;6.07;;;;;;;16.44;70.75;101842.28;5009317;28;20030;-76
2022/10/04 10:17:36;;;;;;;18.85;6.35;;;;;;;16.47;71.29;101833.31;4970808;28;20038;-77
2022/10/04 10:20:15;;;;;;;14.90;5.90;;;;;;;16.57;71.37;101838.34;5002484;28;20048;-77
2022/10/04 10:23:11;;;;;;;14.77;6.30;;;;;;;16.60;70.06;101830.97;4971225;28;20052;-77
2022/10/04 10:25:39;;;;;;;16.10;6.45;;;;;;;16.71;68.77;101835.81;4986601;28;20030;-76
2022/10/04 10:28:30;;;;;;;14.30;6.07;;;;;;;16.78;70.51;101837.75;4983372;28;20085;-76
2022/10/04 10:31:04;;;;;;;13.70;5.78;;;;;;;16.87;68.40;101823.66;5002494;28;20033;-77
2022/10/04 10:34:11;;;;;;;12.68;5.53;;;;;;;16.99;68.90;101822.28;4989761;28;20026;-76
2022/10/04 10:37:11;;;;;;;10.27;5.10;;;;;;;16.91;65.58;101820.53;4994242;28;20034;-77
2022/10/04 10:39:48;;;;;;;15.70;5.15;;;;;;;16.97;65.19;101821.63;4977703;28;20037;-77
2022/10/04 10:42:28;;;;;;;11.65;4.72;;;;;;;16.97;65.34;101826.03;4997870;28;20034;-76
2022/10/04 10:45:20;;;;;;;16.92;5.30;;;;;;;16.80;67.28;101818.28;5003815;28;20038;-76
2022/10/04 10:47:58;;;;;;;9.18;4.53;;;;;;;16.93;68.37;101815.94;4988672;28;21418;-78
2022/10/04 10:50:58;;;;;;;10.73;4.45;;;;;;;17.09;65.16;101814.19;4970421;28;20040;-77
2022/10/04 10:53:44;;;;;;;10.52;4.40;;;;;;;17.03;66.94;101805.22;5004751;28;21551;-77
2022/10/04 10:56:34;;;;;;;10.02;4.85;;;;;;;17.07;65.11;101803.88;4972979;28;20049;-76
2022/10/04 10:59:30;;;;;;;13.45;4.55;;;;;;;17.16;65.75;101804.63;5006887;28;20034;-76
2022/10/04 11:02:09;;;;;;;8.30;4.10;;;;;;;17.21;64.57;101810.16;4988936;28;20109;-77
2022/10/04 11:05:16;;;;;;;7.78;3.38;;;;;;;17.38;66.51;101800.34;4988065;28;20048;-78
2022/10/04 11:08:18;;;;;;;10.57;3.92;;;;;;;17.33;64.78;101786.97;4979806;28;20125;-77
2022/10/04 11:11:02;;;;;;;17.38;4.43;;;;;;;17.47;64.50;101778.31;4989278;28;20061;-76
2022/10/04 11:14:22;;;;;;;14.55;5.00;;;;;;;17.64;63.50;101775.56;5003428;28;20042;-77
2022/10/04 11:17:22;;;;;;;5.38;2.70;;;;;;;17.47;62.03;101785.38;4989652;28;20057;-76
2022/10/04 11:20:36;;;;;;;8.07;3.13;;;;;;;17.52;63.02;101783.03;4981984;28;20661;-76
2022/10/04 11:23:29;;;;;;;10.38;3.70;;;;;;;17.57;63.74;101779.88;4990832;28;20636;-78
2022/10/04 11:25:55;;;;;;;8.10;3.22;;;;;;;17.84;60.81;101775.84;5007004;28;20372;-77
2022/10/04 11:28:25;;;;;;;11.13;3.42;;;;;;;17.77;61.07;101781.00;4976641;28;20164;-79
2022/10/04 11:31:31;;;;;;;8.48;2.85;;;;;;;17.71;62.00;101779.91;4975773;28;20022;-78
2022/10/04 11:34:34;;;;;;;13.85;4.03;;;;;;;17.80;62.65;101777.19;5003283;28;20745;-77
2022/10/04 11:37:17;;;;;;;10.43;3.50;;;;;;;17.89;62.68;101771.72;4991945;28;20411;-78
2022/10/04 11:39:51;;;;;;;;;;;;;;;17.75;63.23;101780.34;4975805;28;20034;-78
2022/10/04 11:42:42;;;;;;;8.57;2.78;;;;;;;17.93;61.07;101771.34;5008735;28;19920;-77
2022/10/04 11:45:37;;;;;;;7.03;2.58;;;;;;;17.96;59.10;101769.16;4987782;28;20121;-77
2022/10/04 11:48:12;;;;;;;7.10;2.28;;;;;;;18.06;57.50;101776.75;4966175;28;20056;-77
2022/10/04 11:50:53;;;;;;;11.20;2.75;;;;;;;18.16;56.17;101779.09;4976371;28;20125;-77
2022/10/04 11:53:38;;;;;;;11.10;2.78;;;;;;;18.09;56.99;101771.97;4971666;28;20395;-77
2022/10/04 11:56:21;;;;;;;5.65;2.20;;;;;;;18.24;57.14;101773.78;4991313;28;20053;-79
2022/10/04 11:58:56;;;;;;;;;;;;;;;18.22;55.18;101771.34;4987265;28;20033;-77
2022/10/04 12:01:29;;;;;;;8.40;3.97;;;;;;;18.16;57.69;101769.44;4987663;28;19928;-78
2022/10/04 12:04:14;;;;;;;9.63;2.67;;;;;;;18.21;55.56;101771.50;4973812;28;20029;-78
2022/10/04 12:07:19;;;;;;;6.40;2.30;;;;;;;18.45;55.54;101770.38;5005596;28;20030;-77
2022/10/04 12:09:58;;;;;;;5.55;2.05;;;;;;;18.43;55.33;101767.94;4990853;28;20128;-78
2022/10/04 12:13:13;;;;;;;6.55;2.75;;;;;;;18.51;53.99;101753.88;4970681;28;20483;-77
2022/10/04 12:16:28;;;;;;;7.90;2.40;;;;;;;18.52;54.31;101749.47;4980810;28;20241;-77
2022/10/04 12:19:28;;;;;;;6.07;2.45;;;;;;;18.56;56.65;101750.72;4931910;28;20045;-79
2022/10/04 12:22:04;;;;;;;7.47;2.22;;;;;;;18.43;57.42;101735.63;4969807;28;20045;-79
2022/10/04 12:24:46;;;;;;;9.48;2.60;;;;;;;18.60;56.02;101751.97;4989351;28;20037;-78
2022/10/04 12:27:52;;;;;;;8.32;2.72;;;;;;;18.55;56.29;101742.00;4988592;28;20041;-79